Time;durP1;ratioP1;P1;durP2;ratioP2;P2;SDS_P1;SDS_P2;PMS_P1;PMS_P2;Temp;Humidity;BMP_temperature;BMP_pressure;BME280_temperature;BME280_humidity;BME280_pressure;Samples;Min_cycle;Max_cycle;Signal;HPM_P1;HPM_P2
2022/04/28 00:00:46;;;;;;;112.00;101.40;;;8.30;62.20;;;;;;5035777;28;20045;-80
2022/04/28 00:03:14;;;;;;;114.50;103.05;;;8.20;62.70;;;;;;5035911;28;20073;-81
2022/04/28 00:05:41;;;;;;;113.88;102.78;;;8.20;62.90;;;;;;5035852;28;20060;-80
2022/04/28 00:08:09;;;;;;;112.57;101.55;;;8.20;63.10;;;;;;5035833;28;20049;-80
2022/04/28 00:10:38;;;;;;;113.03;102.22;;;8.10;63.00;;;;;;5052437;28;20053;-80
2022/04/28 00:13:07;;;;;;;114.40;103.05;;;8.10;63.60;;;;;;5035881;28;20045;-80
2022/04/28 00:15:34;;;;;;;114.72;103.63;;;8.00;63.20;;;;;;5052585;28;20128;-80
2022/04/28 00:18:02;;;;;;;114.65;103.40;;;8.00;63.20;;;;;;5035204;28;20143;-80
2022/04/28 00:20:29;;;;;;;114.55;103.45;;;8.00;63.20;;;;;;5052388;28;20081;-80
2022/04/28 00:22:56;;;;;;;114.05;103.07;;;8.00;63.30;;;;;;5052538;28;20443;-80
2022/04/28 00:25:23;;;;;;;115.15;103.50;;;7.90;63.30;;;;;;5035679;28;20069;-80
2022/04/28 00:27:51;;;;;;;115.53;104.00;;;7.90;63.40;;;;;;5035946;28;20057;-80
2022/04/28 00:30:19;;;;;;;113.90;102.78;;;7.90;63.50;;;;;;5035378;28;20045;-80
2022/04/28 00:32:46;;;;;;;114.20;102.57;;;7.90;63.50;;;;;;5035210;28;20050;-80
2022/04/28 00:35:13;;;;;;;113.20;101.82;;;7.80;63.70;;;;;;5035305;28;20140;-80
2022/04/28 00:37:41;;;;;;;112.70;101.80;;;7.80;63.90;;;;;;5051834;28;20140;-80
2022/04/28 00:40:09;;;;;;;113.60;102.22;;;7.80;63.90;;;;;;5035315;28;20056;-80
2022/04/28 00:42:36;;;;;;;113.00;101.80;;;7.80;64.10;;;;;;5035266;28;20081;-80
2022/04/28 00:45:05;;;;;;;113.45;102.63;;;7.80;64.20;;;;;;5034815;28;20144;-80
2022/04/28 00:52:59;;;;;;;113.90;102.95;;;7.70;65.30;;;;;;5034800;28;20084;-80
2022/04/28 00:55:28;;;;;;;113.88;102.72;;;7.60;64.90;;;;;;5051732;28;20087;-80
2022/04/28 00:57:56;;;;;;;114.15;103.32;;;7.60;65.00;;;;;;5035019;28;20101;-80
2022/04/28 01:00:24;;;;;;;113.30;102.43;;;7.60;65.00;;;;;;5035067;28;20060;-80
2022/04/28 01:02:51;;;;;;;113.10;102.07;;;7.60;65.30;;;;;;5035424;28;20508;-80
2022/04/28 01:05:18;;;;;;;113.82;102.63;;;7.50;65.30;;;;;;5018462;28;20099;-80
2022/04/28 01:07:46;;;;;;;113.05;102.18;;;7.50;65.30;;;;;;5051346;28;20076;-80
2022/04/28 01:10:13;;;;;;;115.05;103.80;;;7.40;65.40;;;;;;5034970;28;20133;-80
2022/04/28 01:12:40;;;;;;;114.97;103.80;;;7.40;65.70;;;;;;5035251;28;20056;-80
2022/04/28 01:15:08;;;;;;;114.50;103.35;;;7.40;66.40;;;;;;5051924;28;20132;-80
2022/04/28 01:17:36;;;;;;;114.03;102.82;;;7.30;66.10;;;;;;5034641;28;20502;-80
2022/04/28 01:20:07;;;;;;;114.03;102.78;;;7.30;66.30;;;;;;5018353;28;20041;-80
2022/04/28 01:22:38;;;;;;;115.22;103.82;;;7.30;66.40;;;;;;5018238;28;20407;-80
2022/04/28 01:25:12;;;;;;;115.30;104.28;;;7.30;66.20;;;;;;5018523;28;20541;-80
2022/04/28 01:27:40;;;;;;;114.45;103.05;;;7.20;66.30;;;;;;5034529;28;20103;-80
2022/04/28 01:30:14;;;;;;;112.97;102.07;;;7.20;66.00;;;;;;5034616;28;20049;-80
2022/04/28 01:32:43;;;;;;;113.82;102.68;;;7.20;66.00;;;;;;5018504;28;20091;-80
2022/04/28 01:35:10;;;;;;;114.78;103.32;;;7.20;65.70;;;;;;5034421;28;20136;-80
2022/04/28 01:37:39;;;;;;;115.07;103.90;;;7.20;66.00;;;;;;5034334;28;20103;-80
2022/04/28 01:40:12;;;;;;;114.18;102.97;;;7.20;66.30;;;;;;5034613;28;20053;-80
2022/04/28 01:42:40;;;;;;;115.15;104.15;;;7.10;66.70;;;;;;5017759;28;20053;-80
2022/04/28 01:45:09;;;;;;;115.20;104.00;;;7.10;66.90;;;;;;5017399;28;20053;-80
2022/04/28 01:47:45;;;;;;;115.78;104.07;;;7.00;67.20;;;;;;5017743;28;20053;-81
2022/04/28 01:50:21;;;;;;;114.77;103.47;;;7.00;67.10;;;;;;5017291;28;20089;-80
2022/04/28 01:56:23;;;;;;;115.95;104.15;;;7.00;67.80;;;;;;5033600;28;20057;-80
2022/04/28 01:58:58;;;;;;;113.85;102.68;;;7.10;68.00;;;;;;5021080;28;20053;-80
2022/04/28 02:01:41;;;;;;;117.00;105.32;;;7.10;68.60;;;;;;5038235;28;20053;-80
2022/04/28 02:04:08;;;;;;;114.97;103.68;;;7.10;68.50;;;;;;5037733;28;20057;-80
2022/04/28 02:06:35;;;;;;;116.30;104.80;;;7.10;69.40;;;;;;5037797;28;20101;-80
2022/04/28 02:09:03;;;;;;;115.00;103.60;;;7.10;69.70;;;;;;5037545;28;20053;-80
2022/04/28 02:11:31;;;;;;;115.57;104.35;;;7.10;70.20;;;;;;5037625;28;20512;-80
2022/04/28 02:14:14;;;;;;;115.25;103.80;;;7.10;70.40;;;;;;5037429;28;20084;-80
2022/04/28 02:17:07;;;;;;;118.47;106.78;;;7.10;71.00;;;;;;5037388;28;20577;-80
2022/04/28 02:19:36;;;;;;;115.55;103.93;;;7.10;70.50;;;;;;5037510;28;20049;-80
2022/04/28 02:22:04;;;;;;;116.50;104.93;;;7.10;71.00;;;;;;5021230;28;20088;-80
2022/04/28 02:24:37;;;;;;;114.65;103.15;;;7.10;71.30;;;;;;5037469;28;20056;-80
2022/04/28 02:27:04;;;;;;;117.00;105.57;;;7.10;71.40;;;;;;5020739;28;20053;-80
2022/04/28 02:29:31;;;;;;;114.90;103.70;;;7.10;71.40;;;;;;5020668;28;20045;-80
2022/04/28 02:31:59;;;;;;;114.55;103.22;;;7.10;71.90;;;;;;5037591;28;20053;-80
2022/04/28 02:34:26;;;;;;;114.95;103.55;;;7.10;72.40;;;;;;5054434;28;20220;-80
2022/04/28 02:36:53;;;;;;;115.93;104.15;;;7.10;73.00;;;;;;5037399;28;20470;-80
2022/04/28 02:39:21;;;;;;;115.15;103.78;;;7.10;73.50;;;;;;5037199;28;20472;-80
2022/04/28 02:41:53;;;;;;;114.72;103.28;;;7.10;73.60;;;;;;5037193;28;20051;-80
2022/04/28 02:44:20;;;;;;;115.72;104.18;;;7.10;74.00;;;;;;5037578;28;20108;-79
2022/04/28 02:46:48;;;;;;;115.80;104.35;;;7.20;74.50;;;;;;5037236;28;20514;-79
2022/04/28 02:49:19;;;;;;;115.10;103.63;;;7.10;75.00;;;;;;5020745;28;20478;-80
2022/04/28 02:51:46;;;;;;;114.68;103.60;;;7.10;75.40;;;;;;5020460;28;20050;-80
2022/04/28 02:54:14;;;;;;;115.50;104.38;;;7.10;76.00;;;;;;5036876;28;20081;-80
2022/04/28 02:56:49;;;;;;;116.25;104.78;;;7.20;75.90;;;;;;5036873;28;20053;-79
2022/04/28 02:59:17;;;;;;;116.13;104.55;;;7.20;76.20;;;;;;5036718;28;20053;-80
2022/04/28 03:01:44;;;;;;;114.72;103.45;;;7.20;76.20;;;;;;5036915;28;20084;-80
2022/04/28 03:04:12;;;;;;;115.70;104.22;;;7.20;76.40;;;;;;5037161;28;20049;-79
2022/04/28 03:12:10;;;;;;;114.82;103.30;;;7.30;76.80;;;;;;5036950;28;20042;-79
2022/04/28 03:14:41;;;;;;;113.40;102.15;;;7.30;76.80;;;;;;5036830;28;20486;-80
2022/04/28 03:17:08;;;;;;;117.25;105.50;;;7.30;77.40;;;;;;5036450;28;20132;-80
2022/04/28 03:19:36;;;;;;;114.65;103.28;;;7.40;78.00;;;;;;5036623;28;20050;-80
2022/04/28 03:22:03;;;;;;;114.22;103.03;;;7.40;77.40;;;;;;5020219;28;20120;-80
2022/04/28 03:24:31;;;;;;;115.00;103.78;;;7.40;77.40;;;;;;5020170;28;20135;-80
2022/04/28 03:26:58;;;;;;;117.32;105.43;;;7.40;77.40;;;;;;5020068;28;20053;-80
2022/04/28 03:29:25;;;;;;;114.90;103.80;;;7.40;77.00;;;;;;5036504;28;20140;-79
2022/04/28 03:31:53;;;;;;;114.90;103.63;;;7.40;77.20;;;;;;5036115;28;20045;-80
2022/04/28 03:34:43;;;;;;;115.15;103.88;;;7.50;77.20;;;;;;5019939;28;20068;-80
2022/04/28 03:37:10;;;;;;;116.05;104.53;;;7.50;77.30;;;;;;5035963;28;20529;-80
2022/04/28 03:39:41;;;;;;;113.53;102.32;;;7.50;77.20;;;;;;5036500;28;20546;-80
2022/04/28 03:42:09;;;;;;;112.32;101.47;;;7.50;77.50;;;;;;5035942;28;20861;-80
2022/04/28 03:44:36;;;;;;;114.68;103.38;;;7.50;78.00;;;;;;5019008;28;20088;-79
2022/04/28 03:47:05;;;;;;;116.78;105.55;;;7.50;77.60;;;;;;5035823;28;20452;-80
2022/04/28 03:49:33;;;;;;;112.65;101.65;;;7.60;77.80;;;;;;5036130;28;20112;-80
2022/04/28 03:52:00;;;;;;;114.80;103.55;;;7.60;77.90;;;;;;5035729;28;20060;-80
2022/04/28 03:54:27;;;;;;;112.65;101.65;;;7.60;77.50;;;;;;5036209;28;20073;-80
2022/04/28 03:56:55;;;;;;;115.93;104.63;;;7.60;77.70;;;;;;5035643;28;20081;-81
2022/04/28 03:59:22;;;;;;;115.35;103.97;;;7.60;78.70;;;;;;5035942;28;20080;-80
2022/04/28 04:02:10;;;;;;;112.68;101.78;;;7.60;79.30;;;;;;5036154;28;20053;-79
2022/04/28 04:04:38;;;;;;;114.07;102.85;;;7.70;78.80;;;;;;5035812;28;20056;-80
2022/04/28 04:07:08;;;;;;;115.32;103.93;;;7.70;78.50;;;;;;5035322;28;20045;-80
2022/04/28 04:09:35;;;;;;;114.93;103.63;;;7.70;78.30;;;;;;5035826;28;20049;-80
2022/04/28 04:12:02;;;;;;;114.22;102.47;;;7.70;78.60;;;;;;5035524;28;20057;-80
2022/04/28 04:14:43;;;;;;;114.30;103.50;;;7.70;78.80;;;;;;5019139;28;20041;-80
2022/04/28 04:17:12;;;;;;;115.63;104.40;;;7.80;78.60;;;;;;5018847;28;20174;-80
2022/04/28 04:19:40;;;;;;;114.57;103.30;;;7.80;79.30;;;;;;5018133;28;20532;-80
2022/04/28 04:22:08;;;;;;;114.22;102.88;;;7.80;79.10;;;;;;5035434;28;20077;-80
2022/04/28 04:24:35;;;;;;;114.38;103.47;;;7.80;78.90;;;;;;5035276;28;20057;-80
2022/04/28 04:27:03;;;;;;;114.70;103.45;;;7.80;78.30;;;;;;5018624;28;20088;-80
2022/04/28 04:32:17;;;;;;;114.88;103.57;;;7.80;78.00;;;;;;5019067;28;20049;-80
2022/04/28 04:32:52;;;;;;;116.85;105.65;;;7.80;78.40;;;;;;5018473;28;20088;-80
2022/04/28 04:35:29;;;;;;;113.72;102.32;;;7.90;78.90;;;;;;5018892;28;20108;-80
2022/04/28 04:37:58;;;;;;;114.60;103.22;;;7.90;79.20;;;;;;5034904;28;20423;-80
2022/04/28 04:40:28;;;;;;;115.88;104.15;;;7.90;79.20;;;;;;5018495;28;20049;-80
2022/04/28 04:42:56;;;;;;;115.90;104.13;;;7.90;79.30;;;;;;5018547;28;20096;-80
2022/04/28 04:45:24;;;;;;;114.18;102.88;;;7.90;79.50;;;;;;5018777;28;20046;-80
2022/04/28 04:48:01;;;;;;;116.15;103.75;;;7.90;79.60;;;;;;5035381;28;20533;-80
2022/04/28 04:50:42;;;;;;;122.75;105.20;;;7.90;79.70;;;;;;5018842;28;20053;-80
2022/04/28 04:53:19;;;;;;;122.93;102.72;;;7.90;79.60;;;;;;5018516;28;20459;-80
2022/04/28 04:55:48;;;;;;;121.25;103.75;;;7.90;79.90;;;;;;5035283;28;20072;-80
2022/04/28 04:58:15;;;;;;;114.82;102.28;;;8.00;79.70;;;;;;5034895;28;20554;-80
2022/04/28 05:00:43;;;;;;;114.70;102.53;;;8.00;79.60;;;;;;5035221;28;20602;-80
2022/04/28 05:03:27;;;;;;;119.57;102.72;;;8.00;79.60;;;;;;5034909;28;20057;-80
2022/04/28 05:05:56;;;;;;;113.55;101.20;;;8.00;79.90;;;;;;5035097;28;20053;-80
2022/04/28 05:08:30;;;;;;;113.63;101.97;;;8.00;79.70;;;;;;5034656;28;20060;-79
2022/04/28 05:11:01;;;;;;;113.45;101.70;;;8.00;79.60;;;;;;5035140;28;20085;-80
2022/04/28 05:13:28;;;;;;;112.82;101.53;;;8.10;79.60;;;;;;5018213;28;20049;-80
2022/04/28 05:15:57;;;;;;;112.80;101.72;;;8.10;79.40;;;;;;5034886;28;20135;-80
2022/04/28 05:18:43;;;;;;;113.20;101.63;;;8.10;79.30;;;;;;5034829;28;20115;-80
2022/04/28 05:21:30;;;;;;;112.65;101.50;;;8.10;79.30;;;;;;5018331;28;20606;-80
2022/04/28 05:24:26;;;;;;;113.10;101.47;;;8.10;79.30;;;;;;4980840;28;20059;-80
2022/04/28 05:27:08;;;;;;;116.25;104.47;;;8.20;79.40;;;;;;5034954;28;20056;-80
2022/04/28 05:29:58;;;;;;;114.50;102.97;;;8.20;79.60;;;;;;5034674;28;20049;-80
2022/04/28 05:32:52;;;;;;;115.63;103.78;;;8.20;80.10;;;;;;5054791;28;20490;-80
2022/04/28 05:35:41;;;;;;;114.20;102.88;;;8.20;79.80;;;;;;5038704;28;20053;-80
2022/04/28 05:38:09;;;;;;;114.10;102.57;;;8.30;80.20;;;;;;5038310;28;20507;-80
2022/04/28 05:40:39;;;;;;;112.60;101.57;;;8.30;80.50;;;;;;5038385;28;20136;-80
2022/04/28 05:45:54;;;;;;;113.22;101.80;;;8.30;80.70;;;;;;5038023;28;20041;-80
2022/04/28 05:48:21;;;;;;;112.05;100.90;;;8.40;80.50;;;;;;5021118;28;20053;-80
2022/04/28 05:50:54;;;;;;;112.18;100.68;;;8.40;80.60;;;;;;5021464;28;20131;-80
2022/04/28 05:53:22;;;;;;;113.38;102.57;;;8.40;80.00;;;;;;5038188;28;20053;-80
2022/04/28 05:55:59;;;;;;;114.80;103.53;;;8.50;78.90;;;;;;5021275;28;20049;-80
2022/04/28 05:58:38;;;;;;;112.68;101.28;;;8.50;79.00;;;;;;5037707;28;20046;-80
2022/04/28 06:01:24;;;;;;;114.20;102.93;;;8.50;79.00;;;;;;5037931;28;20050;-80
2022/04/28 06:03:51;;;;;;;111.78;100.68;;;8.50;78.90;;;;;;5021263;28;20064;-80
2022/04/28 06:06:19;;;;;;;113.30;101.78;;;8.50;78.70;;;;;;5037640;28;20136;-80
2022/04/28 06:08:51;;;;;;;112.80;101.72;;;8.60;78.70;;;;;;5036957;28;20058;-80
2022/04/28 06:11:20;;;;;;;111.88;100.97;;;8.60;78.30;;;;;;5036304;28;20053;-79
2022/04/28 06:13:47;;;;;;;114.82;103.18;;;8.60;78.30;;;;;;5037285;28;20057;-79
2022/04/28 06:16:37;;;;;;;113.85;102.28;;;8.70;78.20;;;;;;5033551;28;20510;-79
2022/04/28 06:19:18;;;;;;;112.95;101.72;;;8.70;77.60;;;;;;5034318;28;20054;-79
2022/04/28 06:22:04;;;;;;;112.97;102.05;;;8.70;77.80;;;;;;5052191;28;20064;-78
2022/04/28 06:24:36;;;;;;;113.82;102.28;;;8.70;77.10;;;;;;5019857;28;20554;-81
2022/04/28 06:27:04;;;;;;;115.25;103.72;;;8.80;77.20;;;;;;5019119;28;20076;-80
2022/04/28 06:29:32;;;;;;;113.57;102.28;;;8.80;76.80;;;;;;5035967;28;20049;-80
2022/04/28 06:32:03;;;;;;;112.43;101.13;;;8.80;76.60;;;;;;5036904;28;20057;-80
2022/04/28 06:34:49;;;;;;;111.60;100.63;;;8.80;76.80;;;;;;5053305;28;20038;-80
2022/04/28 06:37:18;;;;;;;114.10;102.65;;;8.90;77.20;;;;;;5036174;28;20558;-80
2022/04/28 06:39:51;;;;;;;111.53;100.30;;;8.90;77.50;;;;;;5034024;28;20081;-83
2022/04/28 06:42:18;;;;;;;112.88;101.88;;;8.90;77.20;;;;;;5035869;28;20049;-81
2022/04/28 06:45:07;;;;;;;111.53;100.63;;;9.00;77.60;;;;;;5014738;28;20050;-81
2022/04/28 06:47:53;;;;;;;114.95;103.55;;;9.00;77.70;;;;;;5035452;28;20666;-81
2022/04/28 06:50:47;;;;;;;114.35;103.22;;;9.00;78.00;;;;;;4993952;28;20116;-81
2022/04/28 06:53:18;;;;;;;112.47;101.45;;;9.00;78.20;;;;;;5036668;28;20056;-79
2022/04/28 06:55:50;;;;;;;113.38;101.85;;;9.10;78.60;;;;;;5036062;28;20089;-81
2022/04/28 06:58:17;;;;;;;112.78;101.13;;;9.10;78.90;;;;;;5035559;28;20491;-82
2022/04/28 07:00:45;;;;;;;113.00;101.45;;;9.20;79.30;;;;;;5036112;28;20444;-82
2022/04/28 07:03:12;;;;;;;114.07;102.95;;;9.20;79.40;;;;;;5036309;28;20045;-82
2022/04/28 07:05:43;;;;;;;114.18;101.55;;;9.20;80.00;;;;;;5036629;28;20142;-82
2022/04/28 07:08:10;;;;;;;113.55;102.05;;;9.20;80.00;;;;;;5035796;28;20053;-82
2022/04/28 07:10:45;;;;;;;112.57;101.47;;;9.30;80.00;;;;;;5020404;28;20088;-80
2022/04/28 07:13:13;;;;;;;111.93;100.82;;;9.40;80.20;;;;;;5037095;28;20076;-79
2022/04/28 07:15:58;;;;;;;;;;;9.40;80.30;;;;;;5036820;28;20582;-79
2022/04/28 07:18:27;;;;;;;112.20;100.90;;;9.50;79.50;;;;;;5052262;28;19929;-81
2022/04/28 07:20:55;;;;;;;111.13;100.22;;;9.50;80.40;;;;;;5018693;28;20064;-78
2022/04/28 07:23:24;;;;;;;112.10;101.03;;;9.60;80.90;;;;;;5019526;28;20127;-81
2022/04/28 07:25:53;;;;;;;111.85;100.85;;;9.70;81.10;;;;;;5036584;28;20144;-80
2022/04/28 07:28:20;;;;;;;112.90;101.55;;;9.70;81.40;;;;;;5035844;28;20049;-80
2022/04/28 07:31:16;;;;;;;113.28;101.70;;;9.70;81.50;;;;;;5035759;28;20056;-79
2022/04/28 07:34:12;;;;;;;112.80;101.55;;;9.80;81.80;;;;;;5033818;28;20054;-79
2022/04/28 07:36:39;;;;;;;113.45;102.28;;;9.90;81.70;;;;;;5036019;28;20123;-79
2022/04/28 07:39:26;;;;;;;112.93;101.43;;;9.90;81.60;;;;;;5014677;28;20058;-79
2022/04/28 07:42:18;;;;;;;112.00;100.97;;;10.00;81.30;;;;;;5019451;28;20159;-79
2022/04/28 07:44:48;;;;;;;111.63;100.57;;;10.00;81.00;;;;;;5036140;28;20554;-79
2022/04/28 07:47:17;;;;;;;113.38;102.25;;;10.10;80.60;;;;;;5019674;28;20049;-79
2022/04/28 07:49:58;;;;;;;113.30;102.00;;;10.10;80.50;;;;;;5018642;28;20538;-79
2022/04/28 07:52:25;;;;;;;112.00;101.20;;;10.20;80.20;;;;;;5035679;28;20080;-80
2022/04/28 07:54:53;;;;;;;112.38;101.22;;;10.20;80.00;;;;;;5017598;28;20059;-79
2022/04/28 07:57:24;;;;;;;110.13;99.10;;;10.20;79.70;;;;;;5018153;28;20060;-80
2022/04/28 07:59:51;;;;;;;111.43;100.75;;;10.30;79.10;;;;;;5035299;28;20343;-80
2022/04/28 08:02:20;;;;;;;110.35;99.95;;;10.30;78.60;;;;;;5018131;28;20049;-80
2022/04/28 08:04:50;;;;;;;111.85;100.78;;;10.40;78.50;;;;;;5035358;28;20073;-80
2022/04/28 08:07:18;;;;;;;111.60;100.93;;;10.40;78.20;;;;;;5018945;28;20050;-80
2022/04/28 08:09:49;;;;;;;113.25;102.65;;;10.40;78.10;;;;;;5018655;28;20042;-80
2022/04/28 08:12:21;;;;;;;111.05;100.25;;;10.50;77.80;;;;;;5035612;28;20135;-79
2022/04/28 08:14:50;;;;;;;110.40;99.82;;;10.50;77.60;;;;;;5034609;28;20095;-79
2022/04/28 08:17:17;;;;;;;117.78;101.90;;;10.50;77.50;;;;;;5031844;28;20050;-78
2022/04/28 08:19:44;;;;;;;111.35;100.82;;;10.60;77.40;;;;;;5017757;28;20550;-79
2022/04/28 08:22:13;;;;;;;110.57;99.95;;;10.60;77.70;;;;;;5033417;28;20175;-79
2022/04/28 08:24:42;;;;;;;111.03;100.45;;;10.60;77.00;;;;;;5050126;28;20053;-79
2022/04/28 08:27:09;;;;;;;113.20;102.45;;;10.60;76.90;;;;;;5016437;28;20049;-80
2022/04/28 08:29:36;;;;;;;113.68;103.10;;;10.70;76.90;;;;;;5030375;28;20049;-80
2022/04/28 08:32:15;;;;;;;112.20;101.47;;;10.70;76.80;;;;;;5032965;28;20063;-80
2022/04/28 08:34:42;;;;;;;110.13;99.43;;;10.80;77.10;;;;;;5017270;28;20123;-80
2022/04/28 08:37:10;;;;;;;112.00;101.57;;;10.80;76.80;;;;;;5018265;28;20112;-81
2022/04/28 08:39:38;;;;;;;111.13;100.45;;;10.80;76.70;;;;;;5035200;28;20099;-79
2022/04/28 08:42:06;;;;;;;109.63;99.32;;;10.90;76.90;;;;;;5035369;28;20494;-79
2022/04/28 08:44:58;;;;;;;109.45;98.70;;;11.00;77.10;;;;;;5018148;28;20515;-80
2022/04/28 08:47:48;;;;;;;108.57;98.00;;;11.00;76.80;;;;;;5023944;28;20057;-80
2022/04/28 08:50:33;;;;;;;110.10;99.53;;;11.10;76.50;;;;;;5034235;28;20056;-80
2022/04/28 08:53:06;;;;;;;109.40;99.10;;;11.10;76.20;;;;;;5034615;28;20045;-79
2022/04/28 08:55:35;;;;;;;109.82;99.43;;;11.20;75.90;;;;;;5015243;28;20114;-78
2022/04/28 08:58:04;;;;;;;109.10;98.60;;;11.20;75.30;;;;;;5014550;28;20053;-78
2022/04/28 09:00:39;;;;;;;110.93;99.07;;;11.30;75.00;;;;;;5015041;28;20132;-78
2022/04/28 09:03:28;;;;;;;109.68;99.30;;;11.30;74.80;;;;;;5014897;28;20054;-77
2022/04/28 09:06:18;;;;;;;110.20;99.78;;;11.40;74.20;;;;;;5049622;28;20051;-77
2022/04/28 09:09:06;;;;;;;109.90;99.45;;;11.40;73.90;;;;;;5034151;28;20500;-79
2022/04/28 09:11:53;;;;;;;110.35;99.95;;;11.50;73.90;;;;;;5034863;28;20108;-78
2022/04/28 09:14:43;;;;;;;110.22;99.80;;;11.50;73.80;;;;;;5034824;28;20056;-78
2022/04/28 09:17:13;;;;;;;110.97;100.57;;;11.60;73.70;;;;;;5033736;28;20049;-77
2022/04/28 09:19:42;;;;;;;110.28;100.03;;;11.60;73.60;;;;;;5033266;28;20054;-79
2022/04/28 09:22:23;;;;;;;109.80;99.60;;;11.70;73.60;;;;;;5033885;28;20073;-79
2022/04/28 09:24:59;;;;;;;109.85;99.22;;;11.70;73.10;;;;;;5034061;28;20141;-78
2022/04/28 09:27:27;;;;;;;109.70;99.32;;;11.70;72.90;;;;;;5033792;28;20081;-77
2022/04/28 09:29:56;;;;;;;109.10;98.78;;;11.80;73.10;;;;;;5017949;28;20128;-78
2022/04/28 09:32:26;;;;;;;111.68;101.00;;;11.80;73.20;;;;;;5034219;28;20054;-78
2022/04/28 09:35:08;;;;;;;110.13;99.72;;;11.90;74.00;;;;;;5052091;28;20496;-77
2022/04/28 09:37:49;;;;;;;110.75;100.32;;;12.00;73.30;;;;;;5033715;28;20064;-77
2022/04/28 09:43:03;;;;;;;111.27;100.60;;;12.10;72.20;;;;;;5031136;28;20049;-78
2022/04/28 09:45:39;;;;;;;110.20;100.20;;;12.10;71.90;;;;;;5017382;28;20327;-76
2022/04/28 09:48:07;;;;;;;110.03;99.85;;;12.10;71.20;;;;;;5033836;28;20042;-78
2022/04/28 09:50:41;;;;;;;110.35;100.13;;;12.20;71.40;;;;;;5033660;28;20056;-76
2022/04/28 09:53:31;;;;;;;110.85;100.55;;;12.20;71.10;;;;;;5048206;28;20076;-78
2022/04/28 09:56:17;;;;;;;111.15;100.63;;;12.30;71.00;;;;;;5048777;28;20046;-79
2022/04/28 09:58:59;;;;;;;109.95;99.95;;;12.30;71.00;;;;;;5014756;28;20049;-80
2022/04/28 10:01:28;;;;;;;114.85;104.07;;;12.40;71.00;;;;;;5033807;28;20085;-79
2022/04/28 10:03:55;;;;;;;111.93;101.63;;;12.40;70.80;;;;;;5031835;28;20111;-81
2022/04/28 10:06:44;;;;;;;114.00;101.72;;;12.50;70.70;;;;;;5033206;28;20092;-82
2022/04/28 10:09:32;;;;;;;110.47;100.10;;;12.50;70.70;;;;;;5033357;28;20061;-83
2022/04/28 10:12:08;;;;;;;111.60;101.07;;;12.60;70.10;;;;;;5040470;28;20140;-80
2022/04/28 10:14:56;;;;;;;110.35;100.15;;;12.60;69.90;;;;;;5027741;28;20322;-81
2022/04/28 10:17:27;;;;;;;112.85;102.28;;;12.70;69.80;;;;;;5033210;28;20051;-78
2022/04/28 10:19:59;;;;;;;112.32;101.90;;;12.70;69.70;;;;;;5037381;28;20104;-80
2022/04/28 10:22:47;;;;;;;112.60;102.18;;;12.80;69.90;;;;;;5034287;28;20686;-81
2022/04/28 10:34:11;;;;;;;111.25;100.95;;;13.00;69.70;;;;;;5036234;28;20551;-80
2022/04/28 10:36:52;;;;;;;113.78;103.03;;;13.00;69.60;;;;;;5035002;28;20045;-79
2022/04/28 10:39:35;;;;;;;112.75;102.45;;;13.10;69.60;;;;;;5053294;28;20124;-78
2022/04/28 10:42:13;;;;;;;113.55;103.13;;;13.10;69.60;;;;;;5036491;28;20045;-78
2022/04/28 10:44:42;;;;;;;113.82;103.38;;;13.20;69.60;;;;;;5036776;28;20094;-79
2022/04/28 10:47:21;;;;;;;113.70;103.20;;;13.30;69.40;;;;;;5036541;28;20864;-79
2022/04/28 10:49:52;;;;;;;111.47;101.00;;;13.30;69.40;;;;;;5053872;28;20131;-81
2022/04/28 10:52:25;;;;;;;113.53;103.13;;;13.40;69.30;;;;;;5036108;28;20059;-81
2022/04/28 10:54:55;;;;;;;113.47;103.03;;;13.50;69.00;;;;;;5053034;28;20079;-81
2022/04/28 10:57:30;;;;;;;113.25;102.70;;;13.60;69.00;;;;;;5034580;28;20053;-81
2022/04/28 10:59:57;;;;;;;112.78;102.63;;;13.70;69.00;;;;;;5052689;28;20055;-80
2022/04/28 11:02:44;;;;;;;114.72;104.13;;;13.70;68.90;;;;;;5053377;28;20111;-81
2022/04/28 11:05:37;;;;;;;112.88;102.60;;;13.80;69.00;;;;;;5020662;28;20462;-83
2022/04/28 11:08:05;;;;;;;112.03;101.68;;;13.80;68.50;;;;;;5036477;28;20046;-84
2022/04/28 11:10:33;;;;;;;114.10;102.00;;;13.90;67.70;;;;;;5020193;28;20112;-84
2022/04/28 11:13:09;;;;;;;113.85;102.93;;;14.00;67.60;;;;;;5052288;28;20137;-80
2022/04/28 11:15:37;;;;;;;112.57;102.38;;;14.00;67.80;;;;;;5035047;28;20514;-78
2022/04/28 11:18:04;;;;;;;400.88;121.22;;;14.00;67.50;;;;;;5035008;28;20143;-81
2022/04/28 11:20:32;;;;;;;114.20;103.28;;;14.10;67.60;;;;;;5035915;28;20084;-84
2022/04/28 11:23:04;;;;;;;113.55;103.13;;;14.10;68.00;;;;;;5018515;28;20492;-83
2022/04/28 11:25:30;;;;;;;115.10;104.70;;;14.20;68.10;;;;;;5035465;28;20053;-85
2022/04/28 11:28:01;;;;;;;114.43;104.15;;;14.20;67.60;;;;;;5035473;28;20527;-85
2022/04/28 11:30:29;;;;;;;114.22;104.00;;;14.30;67.50;;;;;;5035567;28;20260;-84
2022/04/28 11:32:58;;;;;;;113.90;103.68;;;14.30;67.30;;;;;;5017093;28;21029;-85
2022/04/28 11:35:30;;;;;;;114.57;104.22;;;14.40;67.30;;;;;;5035963;28;20561;-84
2022/04/28 11:37:57;;;;;;;115.43;104.70;;;14.50;66.80;;;;;;5036104;28;20534;-85
2022/04/28 11:40:25;;;;;;;115.32;104.63;;;14.40;66.50;;;;;;5035774;28;20059;-84
2022/04/28 11:42:56;;;;;;;115.38;104.90;;;14.50;66.30;;;;;;5035344;28;20046;-82
2022/04/28 11:45:26;;;;;;;119.00;107.97;;;14.50;66.20;;;;;;5035807;28;20057;-83
2022/04/28 11:47:56;;;;;;;117.70;106.90;;;14.60;66.40;;;;;;5034572;28;20552;-82
2022/04/28 11:50:26;;;;;;;118.60;107.82;;;14.60;66.10;;;;;;5017752;28;20077;-82
2022/04/28 11:53:02;;;;;;;116.68;105.88;;;14.60;66.00;;;;;;5052561;28;20057;-84
2022/04/28 11:55:30;;;;;;;117.53;106.65;;;14.60;65.60;;;;;;5035128;28;20073;-82
2022/04/28 11:57:57;;;;;;;116.25;106.00;;;14.70;65.80;;;;;;5049209;28;20568;-84
2022/04/28 12:00:26;;;;;;;116.47;106.20;;;14.70;65.60;;;;;;5034081;28;20487;-83
2022/04/28 12:02:54;;;;;;;120.85;108.15;;;14.80;65.30;;;;;;5050691;28;20056;-84
2022/04/28 12:05:22;;;;;;;120.03;109.22;;;14.80;65.00;;;;;;5034710;28;20444;-84
2022/04/28 12:07:52;;;;;;;120.45;109.45;;;14.80;64.60;;;;;;5034461;28;20045;-85
2022/04/28 12:15:58;;;;;;;119.53;106.32;;;14.90;64.60;;;;;;5034674;28;20080;-82
2022/04/28 12:21:18;;;;;;;121.00;110.18;;;15.00;64.40;;;;;;5033840;28;20184;-83
2022/04/28 12:23:50;;;;;;;120.80;110.18;;;15.10;64.20;;;;;;5034263;28;20120;-85
2022/04/28 12:26:20;;;;;;;120.90;108.15;;;15.20;64.80;;;;;;5034366;28;20055;-84
2022/04/28 12:28:48;;;;;;;119.07;108.78;;;15.20;64.40;;;;;;5034327;28;20523;-81
2022/04/28 12:31:27;;;;;;;117.13;106.75;;;15.30;64.20;;;;;;5050714;28;20597;-80
2022/04/28 12:33:55;;;;;;;118.40;107.93;;;15.40;64.20;;;;;;5031843;28;20053;-80
2022/04/28 12:36:22;;;;;;;116.88;106.10;;;15.40;64.10;;;;;;5018071;28;20045;-80
2022/04/28 12:38:52;;;;;;;117.05;107.05;;;15.50;63.90;;;;;;5034320;28;20076;-80
2022/04/28 12:41:22;;;;;;;118.75;108.30;;;15.50;63.10;;;;;;5050500;28;20151;-80
2022/04/28 12:43:50;;;;;;;117.90;107.57;;;15.60;63.00;;;;;;5051715;28;20064;-80
2022/04/28 12:46:23;;;;;;;120.90;110.68;;;15.70;63.00;;;;;;5017236;28;20137;-75
2022/04/28 12:48:55;;;;;;;117.57;106.95;;;15.70;63.90;;;;;;5033380;28;20081;-78
2022/04/28 12:51:23;;;;;;;120.75;110.20;;;15.80;64.00;;;;;;5033771;28;20057;-78
2022/04/28 12:53:52;;;;;;;123.78;110.68;;;15.80;63.40;;;;;;5033773;28;20597;-79
2022/04/28 12:56:28;;;;;;;119.95;109.63;;;15.90;63.00;;;;;;5017630;28;20512;-78
2022/04/28 12:58:57;;;;;;;118.65;108.18;;;16.00;63.10;;;;;;5031974;28;20057;-78
2022/04/28 13:01:26;;;;;;;119.72;109.50;;;16.10;62.90;;;;;;5051743;28;20084;-78
2022/04/28 13:03:58;;;;;;;120.15;110.03;;;16.20;63.20;;;;;;5035164;28;20547;-79
2022/04/28 13:06:26;;;;;;;121.80;111.68;;;16.30;62.90;;;;;;5034913;28;20056;-80
2022/04/28 13:08:54;;;;;;;123.07;112.57;;;16.40;62.30;;;;;;5052335;28;20146;-84
2022/04/28 13:11:28;;;;;;;121.50;111.03;;;16.40;62.60;;;;;;5033009;28;20053;-79
2022/04/28 13:13:55;;;;;;;121.95;111.32;;;16.50;62.40;;;;;;5049985;28;20177;-78
2022/04/28 13:16:22;;;;;;;119.95;109.25;;;16.60;62.20;;;;;;5051346;28;20053;-80
2022/04/28 13:18:51;;;;;;;121.65;111.22;;;16.70;62.00;;;;;;5034471;28;20084;-79